createdAt,value
2019-04-20T00:01:35.959Z,8.6
2019-04-20T00:06:38.097Z,8.6
2019-04-20T00:11:35.295Z,8.5
2019-04-20T00:16:23.228Z,8.5
2019-04-20T00:21:20.733Z,8.4
2019-04-20T00:26:23.702Z,8.4
2019-04-20T00:31:26.606Z,8.4
2019-04-20T00:36:08.812Z,8.3
2019-04-20T00:41:07.436Z,8.3
2019-04-20T00:46:07.818Z,8.2
2019-04-20T00:51:16.377Z,8.2
2019-04-20T00:55:52.939Z,8.1
2019-04-20T01:01:06.583Z,8.1
2019-04-20T01:06:06.127Z,8
2019-04-20T01:10:46.100Z,7.9
2019-04-20T01:15:42.641Z,7.7
2019-04-20T01:20:32.066Z,7.6
2019-04-20T01:25:33.714Z,7.5
2019-04-20T01:30:31.919Z,7.4
2019-04-20T01:35:35.419Z,7.3
2019-04-20T01:40:16.958Z,7.1
2019-04-20T01:45:17.780Z,6.9
2019-04-20T01:50:14.033Z,6.8
2019-04-20T01:55:15.571Z,6.8
2019-04-20T02:00:05.919Z,6.9
2019-04-20T02:04:59.375Z,6.9
2019-04-20T02:09:58.211Z,6.9
2019-04-20T02:14:52.127Z,6.9
2019-04-20T02:20:04.409Z,6.9
2019-04-20T02:24:40.476Z,6.8
2019-04-20T02:29:58.002Z,6.8
2019-04-20T02:34:59.060Z,6.8
2019-04-20T02:39:59.716Z,6.8
2019-04-20T02:44:58.480Z,6.8
2019-04-20T02:49:50.606Z,6.8
2019-04-20T02:54:44.757Z,6.8
2019-04-20T03:04:20.111Z,6.8
2019-04-20T03:09:25.190Z,6.8
2019-04-20T03:14:17.272Z,6.8
2019-04-20T03:19:11.619Z,6.8
2019-04-20T03:24:18.652Z,6.8
2019-04-20T03:29:00.962Z,6.8
2019-04-20T03:34:37.379Z,6.8
2019-04-20T03:38:57.155Z,6.8
2019-04-20T03:43:37.052Z,6.8
2019-04-20T03:48:46.140Z,6.8
2019-04-20T03:53:49.844Z,6.9
2019-04-20T03:58:44.014Z,6.9
2019-04-20T04:03:46.850Z,6.9
2019-04-20T04:08:25.279Z,6.9
2019-04-20T04:13:12.611Z,7
2019-04-20T04:18:15.539Z,7.2
2019-04-20T04:23:21.886Z,7.4
2019-04-20T04:28:13.647Z,7.6
2019-04-20T04:33:39.546Z,7.9
2019-04-20T04:38:05.644Z,8.2
2019-04-20T04:43:10.017Z,8.5
2019-04-20T04:47:47.096Z,8.8
2019-04-20T04:52:52.112Z,9
2019-04-20T04:57:38.987Z,9.2
2019-04-20T05:02:40.566Z,9.6
2019-04-20T05:07:43.325Z,9.9
2019-04-20T05:12:30.376Z,10.2
2019-04-20T05:17:43.229Z,10.4
2019-04-20T05:22:40.793Z,10.3
2019-04-20T05:32:16.811Z,10.4
2019-04-20T05:37:32.878Z,10.7
2019-04-20T05:42:29.818Z,11.1
2019-04-20T05:47:16.806Z,10.9
2019-04-20T05:52:28.756Z,11
2019-04-20T05:57:20.924Z,11.1
2019-04-20T06:02:09.524Z,11.8
2019-04-20T06:07:07.924Z,12.2
2019-04-20T06:17:01.459Z,13.1
2019-04-20T06:22:03.180Z,13.7
2019-04-20T06:27:14.246Z,14.2
2019-04-20T06:31:51.664Z,16.7
2019-04-20T06:46:52.308Z,19.6
2019-04-20T06:51:41.657Z,20.4
2019-04-20T06:56:40.611Z,22.7
2019-04-20T07:01:41.686Z,21
2019-04-20T07:11:27.863Z,19
2019-04-20T07:16:27.829Z,18
2019-04-20T07:21:37.167Z,21.7
2019-04-20T07:26:22.057Z,26.3
2019-04-20T07:31:12.951Z,24.7
2019-04-20T07:36:19.355Z,25.8
2019-04-20T07:41:20.178Z,28.3
2019-04-20T07:46:09.192Z,29
2019-04-20T07:50:57.871Z,30.1
2019-04-20T07:56:04.334Z,30.8
2019-04-20T08:01:07.443Z,31.3
2019-04-20T08:05:48.383Z,32.3
2019-04-20T08:10:53.491Z,32.7
2019-04-20T08:15:56.747Z,32.7
2019-04-20T08:20:52.225Z,33.9
2019-04-20T08:25:39.432Z,30.7
2019-04-20T08:30:41.143Z,25
2019-04-20T08:35:38.762Z,22.8
2019-04-20T08:40:31.189Z,27.2
2019-04-20T08:45:34.433Z,29.8
2019-04-20T08:50:40.961Z,33.7
2019-04-20T08:55:23.217Z,34.7
2019-04-20T09:00:04.608Z,36.7
2019-04-20T09:05:04.747Z,33.6
2019-04-20T09:10:23.936Z,27.6
2019-04-20T09:14:53.021Z,29.7
2019-04-20T09:19:55.627Z,22.1
2019-04-20T09:25:07.006Z,20.4
2019-04-20T09:29:46.322Z,28.4
2019-04-20T09:34:52.976Z,29.6
2019-04-20T09:39:44.807Z,31
2019-04-20T09:44:35.433Z,31.4
2019-04-20T09:49:38.625Z,31.5
2019-04-20T09:54:41.199Z,23.3
2019-04-20T09:59:36.980Z,25
2019-04-20T10:04:15.228Z,28.6
2019-04-20T10:09:11.584Z,31.6
2019-04-20T10:14:08.470Z,35.4
2019-04-20T10:19:08.773Z,25.6
2019-04-20T10:24:02.829Z,29.1
2019-04-20T10:28:59.387Z,32.8
2019-04-20T10:33:56.131Z,33.9
2019-04-20T10:38:54.813Z,36.6
2019-04-20T10:43:51.509Z,26
2019-04-20T10:48:49.813Z,28
2019-04-20T10:53:42.350Z,26.1
2019-04-20T10:58:37.849Z,30.2
2019-04-20T11:03:34.621Z,21.7
2019-04-20T11:08:28.725Z,15.4
2019-04-20T11:13:21.785Z,18.5
2019-04-20T11:18:17.583Z,16.2
2019-04-20T11:23:10.906Z,21.4
2019-04-20T11:28:08.180Z,18.4
2019-04-20T11:33:04.351Z,22.9
2019-04-20T11:38:00.898Z,19.3
2019-04-20T11:42:57.494Z,21.1
2019-04-20T11:47:53.879Z,21
2019-04-20T11:52:51.446Z,18.8
2019-04-20T11:57:47.146Z,20.8
2019-04-20T12:02:44.666Z,15.8
2019-04-20T12:07:38.101Z,14
2019-04-20T12:12:38.869Z,18.5
2019-04-20T12:17:29.090Z,20.1
2019-04-20T12:22:26.187Z,24.1
2019-04-20T12:27:23.289Z,19.5
2019-04-20T12:32:21.712Z,14.8
2019-04-20T12:37:15.417Z,14.4
2019-04-20T12:42:11.205Z,14.7
2019-04-20T12:47:05.939Z,14.1
2019-04-20T12:52:04.766Z,17.4
2019-04-20T12:56:58.646Z,22.6
2019-04-20T13:01:57.467Z,20.6
2019-04-20T13:06:55.256Z,22.3
2019-04-20T13:11:57.049Z,15.7
2019-04-20T13:16:48.927Z,19.6
2019-04-20T13:21:43.129Z,19.6
2019-04-20T13:26:40.628Z,23
2019-04-20T13:31:37.926Z,18.5
2019-04-20T13:36:34.552Z,18.8
2019-04-20T13:41:31.594Z,20
2019-04-20T13:46:27.205Z,17.8
2019-04-20T13:51:23.108Z,17.2
2019-04-20T13:56:19.746Z,18.1
2019-04-20T14:01:16.829Z,17.9
2019-04-20T14:06:14.303Z,15.9
2019-04-20T14:11:09.429Z,16.6
2019-04-20T14:16:05.054Z,20.3
2019-04-20T14:21:02.442Z,20.5
2019-04-20T14:25:58.774Z,20.7
2019-04-20T14:30:56.069Z,20.6
2019-04-20T14:35:52.709Z,19.8
2019-04-20T14:40:48.351Z,20.2
2019-04-20T14:45:44.991Z,19.6
2019-04-20T14:50:41.279Z,17.9
2019-04-20T14:55:37.523Z,17.3
2019-04-20T15:00:32.711Z,17.4
2019-04-20T15:05:28.899Z,17.1
2019-04-20T15:10:24.874Z,17
2019-04-20T15:15:21.057Z,16.9
2019-04-20T15:20:17.346Z,16.8
2019-04-20T15:25:13.846Z,16.9
2019-04-20T15:30:09.706Z,17.3
2019-04-20T15:35:07.052Z,18.6
2019-04-20T15:40:03.416Z,18.7
2019-04-20T15:44:59.336Z,17.8
2019-04-20T15:49:56.047Z,17.5
2019-04-20T15:54:53.644Z,17.2
2019-04-20T15:59:48.695Z,15.7
2019-04-20T16:04:45.287Z,14.4
2019-04-20T16:09:40.281Z,13.6
2019-04-20T16:14:37.528Z,12.9
2019-04-20T16:19:40.403Z,12.3
2019-04-20T16:24:29.506Z,11.9
2019-04-20T16:29:23.845Z,11.5
2019-04-20T16:34:19.506Z,11.2
2019-04-20T16:39:16.388Z,10.8
2019-04-20T16:44:11.304Z,10.5
2019-04-20T16:49:07.253Z,10.2
2019-04-20T16:54:03.599Z,9.9
2019-04-20T16:59:03.914Z,9.6
2019-04-20T17:04:01.695Z,9.3
2019-04-20T17:08:49.601Z,9
2019-04-20T17:13:49.552Z,8.7
2019-04-20T17:18:41.451Z,8.4
2019-04-20T17:23:37.449Z,8.2
2019-04-20T17:28:33.278Z,7.6
2019-04-20T17:33:30.060Z,7.4
2019-04-20T17:38:34.597Z,7.1
2019-04-20T17:43:29.021Z,6.9
2019-04-20T17:48:30.288Z,6.5
2019-04-20T17:53:23.886Z,6.4
2019-04-20T17:58:11.888Z,6
2019-04-20T18:03:19.494Z,5.8
2019-04-20T18:08:20.266Z,5.6
2019-04-20T18:13:02.438Z,5.4
2019-04-20T18:18:10.126Z,5.2
2019-04-20T18:22:53.502Z,5.1
2019-04-20T18:27:59.464Z,4.9
2019-04-20T18:32:41.115Z,4.8
2019-04-20T18:37:36.903Z,4.6
2019-04-20T18:42:38.783Z,4.4
2019-04-20T18:47:45.078Z,4.4
2019-04-20T18:52:24.554Z,4.4
2019-04-20T18:57:25.834Z,4.3
2019-04-20T19:02:22.747Z,4.2
2019-04-20T19:07:14.056Z,4
2019-04-20T19:12:11.439Z,4.1
2019-04-20T19:17:13.768Z,3.9
2019-04-20T19:22:01.734Z,3.8
2019-04-20T19:27:01.666Z,3.7
2019-04-20T19:32:11.180Z,3.7
2019-04-20T19:37:00.770Z,3.6
2019-04-20T19:41:52.538Z,3.5
2019-04-20T19:47:04.736Z,3.5
2019-04-20T19:52:02.444Z,3.4
2019-04-20T19:56:48.130Z,3.2
2019-04-20T20:01:29.532Z,3.2
2019-04-20T20:06:32.373Z,3.2
2019-04-20T20:11:28.058Z,2.9
2019-04-20T20:16:26.990Z,2.9
2019-04-20T20:21:23.268Z,3.1
2019-04-20T20:26:19.535Z,3
2019-04-20T20:31:16.711Z,2.9
2019-04-20T20:36:09.171Z,2.7
2019-04-20T20:41:08.596Z,2.7
2019-04-20T20:46:04.869Z,2.7
2019-04-20T20:51:08.760Z,2.7
2019-04-20T20:55:50.924Z,2.7
2019-04-20T21:00:53.815Z,2.6
2019-04-20T21:05:39.763Z,2.5
2019-04-20T21:10:39.896Z,2.4
2019-04-20T21:15:31.585Z,2.3
2019-04-20T21:20:47.738Z,2.3
2019-04-20T21:25:25.373Z,2.2
2019-04-20T21:30:26.787Z,2.2
2019-04-20T21:35:16.095Z,2.1
2019-04-20T21:40:20.199Z,2.1
2019-04-20T21:45:14.750Z,2.1
2019-04-20T21:50:21.306Z,2
2019-04-20T21:55:00.325Z,2
2019-04-20T22:00:00.972Z,1.9
2019-04-20T22:04:51.545Z,1.8
2019-04-20T22:09:50.231Z,1.9
2019-04-20T22:14:43.878Z,1.8
2019-04-20T22:19:45.705Z,1.8
2019-04-20T22:24:50.303Z,1.8
2019-04-20T22:29:32.254Z,1.8
2019-04-20T22:34:29.493Z,1.8
2019-04-20T22:39:31.848Z,1.8
2019-04-20T22:44:22.426Z,1.7
2019-04-20T22:49:31.932Z,1.7
2019-04-20T22:54:27.409Z,1.7
2019-04-20T22:59:13.751Z,1.6
2019-04-20T23:04:04.335Z,1.4
2019-04-20T23:09:04.709Z,1.4
2019-04-20T23:13:56.250Z,1.3
2019-04-20T23:18:52.009Z,1.2
2019-04-20T23:23:50.261Z,1.2
2019-04-20T23:28:48.041Z,1.2
2019-04-20T23:33:40.237Z,1.3
2019-04-20T23:38:36.725Z,1.1
2019-04-20T23:43:34.232Z,1
2019-04-20T23:48:33.603Z,1
2019-04-20T23:53:37.089Z,1
2019-04-20T23:58:21.132Z,1.1
